A And A — ZGBA7 — position and weather

sailwx.info

Track history (hours):
 
Tides and Currents Weather Stations Pressure Air Temp Water Temp Dewpoint Dewpoint Depression Visibility Wind Speed Wind Dir Waves Ship Positions

A And A

Last reported at 2014-Jul-28 07:27 UTC. Time now 2014-Jul-30 05:06 UTC.
Position N 39°04' E 002°44'.

Type: Pleasure craft. MMSI: 232155000.

Date/timePositionNaut miles runAvg speedWind from/ knotsBaromVisibWave heightAir tempDewpointWater temp
2014-Jul-28 07:27N 39°04' E 002°44'14612.2
2014-Jul-27 19:29N 40°46' E 004°60'5712.9
2014-Jul-27 15:04N 41°34' E 005°40'712.8
2014-Jul-27 14:32N 41°40' E 005°45'1212.8
2014-Jul-27 13:33N 41°50' E 005°55'5112.7
2014-Jul-27 09:33N 42°37' E 006°21'1313.1
2014-Jul-27 08:33N 42°49' E 006°29'1713.6
2014-Jul-27 07:16N 43°04' E 006°40'1014.1
2014-Jul-27 06:33N 43°13' E 006°47'1413.7
2014-Jul-27 05:33N 43°25' E 006°56'6 0.4
2014-Jul-26 12:23N 43°31' E 006°57'0 0.0
2014-Jul-26 05:03N 43°31' E 006°57'0 0.0
2014-Jul-26 04:14N 43°31' E 006°57'0 0.0
2014-Jul-26 02:05N 43°31' E 006°57'0 0.0
2014-Jul-26 01:19N 43°31' E 006°57'0 0.0
2014-Jul-26 00:26N 43°31' E 006°57'0 0.0
2014-Jul-25 22:24N 43°31' E 006°57'0 0.0
2014-Jul-25 21:29N 43°31' E 006°57'0 0.0
2014-Jul-25 19:22N 43°31' E 006°57'910.5
2014-Jul-25 18:33N 43°23' E 006°54'1312.7
2014-Jul-25 17:34N 43°14' E 006°42'1 0.3
2014-Jul-25 13:29N 43°13' E 006°40'8 8.7
2014-Jul-25 12:33N 43°20' E 006°47'13 0.3
2014-Jul-23 16:24N 43°31' E 006°57'0 0.0
2014-Jul-23 15:30N 43°31' E 006°57'0 0.0
2014-Jul-22 16:33N 43°31' E 006°57'0 0.0
2014-Jul-21 18:31N 43°31' E 006°57'7 7.6
2014-Jul-21 17:33N 43°24' E 006°54'1212.5
2014-Jul-21 16:33N 43°15' E 006°43'3 2.8
2014-Jul-21 15:31N 43°13' E 006°40'0 0.0
2014-Jul-21 13:27N 43°13' E 006°40'1 0.8
2014-Jul-21 12:33N 43°14' E 006°41'3 0.1
2014-Jul-19 18:04N 43°16' E 006°38'2 4.0
2014-Jul-19 17:33N 43°17' E 006°41'4 1.2
2014-Jul-19 14:15N 43°13' E 006°40'0 0.5
2014-Jul-19 13:33N 43°14' E 006°41'3 0.8
2014-Jul-19 09:16N 43°16' E 006°38'0 0.0
2014-Jul-18 18:24N 43°16' E 006°38'8 9.0
2014-Jul-18 17:32N 43°21' E 006°47'1212.1
2014-Jul-18 16:33N 43°30' E 006°58'  
Track history (hours):
 
Tides and Currents Weather Stations Pressure Air Temp Water Temp Dewpoint Dewpoint Depression Visibility Wind Speed Wind Dir Waves Ship Positions

A And A

Last reported at 2014-Jul-28 07:27 UTC. Time now 2014-Jul-30 05:06 UTC.
Position N 39°04' E 002°44'.

Type: Pleasure craft. MMSI: 232155000.

Date/timePositionNaut miles runAvg speedWind from/ knotsBaromVisibWave heightAir tempDewpointWater temp
2014-Jul-28 07:27N 39°04' E 002°44'14612.2
2014-Jul-27 19:29N 40°46' E 004°60'5712.9
2014-Jul-27 15:04N 41°34' E 005°40'712.8
2014-Jul-27 14:32N 41°40' E 005°45'1212.8
2014-Jul-27 13:33N 41°50' E 005°55'5112.7
2014-Jul-27 09:33N 42°37' E 006°21'1313.1
2014-Jul-27 08:33N 42°49' E 006°29'1713.6
2014-Jul-27 07:16N 43°04' E 006°40'1014.1
2014-Jul-27 06:33N 43°13' E 006°47'1413.7
2014-Jul-27 05:33N 43°25' E 006°56'6 0.4
2014-Jul-26 12:23N 43°31' E 006°57'0 0.0
2014-Jul-26 05:03N 43°31' E 006°57'0 0.0
2014-Jul-26 04:14N 43°31' E 006°57'0 0.0
2014-Jul-26 02:05N 43°31' E 006°57'0 0.0
2014-Jul-26 01:19N 43°31' E 006°57'0 0.0
2014-Jul-26 00:26N 43°31' E 006°57'0 0.0
2014-Jul-25 22:24N 43°31' E 006°57'0 0.0
2014-Jul-25 21:29N 43°31' E 006°57'0 0.0
2014-Jul-25 19:22N 43°31' E 006°57'910.5
2014-Jul-25 18:33N 43°23' E 006°54'1312.7
2014-Jul-25 17:34N 43°14' E 006°42'1 0.3
2014-Jul-25 13:29N 43°13' E 006°40'8 8.7
2014-Jul-25 12:33N 43°20' E 006°47'13 0.3
2014-Jul-23 16:24N 43°31' E 006°57'0 0.0
2014-Jul-23 15:30N 43°31' E 006°57'0 0.0
2014-Jul-22 16:33N 43°31' E 006°57'0 0.0
2014-Jul-21 18:31N 43°31' E 006°57'7 7.6
2014-Jul-21 17:33N 43°24' E 006°54'1212.5
2014-Jul-21 16:33N 43°15' E 006°43'3 2.8
2014-Jul-21 15:31N 43°13' E 006°40'0 0.0
2014-Jul-21 13:27N 43°13' E 006°40'1 0.8
2014-Jul-21 12:33N 43°14' E 006°41'3 0.1
2014-Jul-19 18:04N 43°16' E 006°38'2 4.0
2014-Jul-19 17:33N 43°17' E 006°41'4 1.2
2014-Jul-19 14:15N 43°13' E 006°40'0 0.5
2014-Jul-19 13:33N 43°14' E 006°41'3 0.8
2014-Jul-19 09:16N 43°16' E 006°38'0 0.0
2014-Jul-18 18:24N 43°16' E 006°38'8 9.0
2014-Jul-18 17:32N 43°21' E 006°47'1212.1
2014-Jul-18 16:33N 43°30' E 006°58'  

Dump ship's entire track history